createdAt,value
2023-02-23T00:04:31.526Z,10.47
2023-02-23T00:09:36.897Z,10.40
2023-02-23T00:14:39.606Z,12.53
2023-02-23T00:19:44.102Z,12.67
2023-02-23T00:24:47.986Z,12.77
2023-02-23T00:29:51.111Z,14.50
2023-02-23T00:34:53.888Z,11.33
2023-02-23T00:39:57.283Z,10.73
2023-02-23T00:45:07.171Z,11.70
2023-02-23T00:50:13.232Z,10.43
2023-02-23T00:55:16.044Z,10.20
2023-02-23T01:00:20.550Z,10.80
2023-02-23T01:05:23.549Z,11.60
2023-02-23T01:10:28.801Z,11.20
2023-02-23T01:15:31.085Z,10.43
2023-02-23T01:20:37.730Z,11.10
2023-02-23T01:25:42.975Z,11.10
2023-02-23T01:30:45.321Z,8.80
2023-02-23T01:35:59.365Z,9.63
2023-02-23T01:41:01.638Z,10.93
2023-02-23T01:46:04.849Z,10.17
2023-02-23T01:51:12.607Z,9.87
2023-02-23T01:56:21.513Z,10.80
2023-02-23T02:01:23.987Z,9.53
2023-02-23T02:06:28.938Z,9.50
2023-02-23T02:11:31.273Z,11.10
2023-02-23T02:17:02.355Z,12.87
2023-02-23T02:22:56.111Z,17.83
2023-02-23T02:28:22.310Z,9.57
2023-02-23T02:34:00.287Z,9.80
2023-02-23T02:39:35.420Z,9.93
2023-02-23T02:45:09.438Z,10.73
2023-02-23T02:50:41.605Z,11.60
2023-02-23T02:55:48.351Z,9.67
2023-02-23T03:01:10.089Z,9.93
2023-02-23T03:06:30.956Z,9.13
2023-02-23T03:12:00.855Z,8.93
2023-02-23T03:17:38.601Z,12.87
2023-02-23T03:23:27.230Z,15.37
2023-02-23T03:28:57.249Z,20.83
2023-02-23T03:34:36.060Z,23.63
2023-02-23T03:40:10.052Z,24.07
2023-02-23T03:45:36.775Z,21.37
2023-02-23T03:51:04.717Z,24.10
2023-02-23T03:56:29.443Z,23.67
2023-02-23T04:01:52.822Z,25.77
2023-02-23T04:07:17.422Z,28.37
2023-02-23T04:13:07.990Z,28.00
2023-02-23T04:18:16.769Z,25.47
2023-02-23T04:23:19.387Z,21.37
2023-02-23T04:28:23.950Z,31.93
2023-02-23T04:33:27.386Z,25.70
2023-02-23T04:38:29.794Z,24.77
2023-02-23T04:43:31.911Z,28.50
2023-02-23T04:48:34.275Z,27.43
2023-02-23T04:53:36.621Z,24.40
2023-02-23T04:58:38.983Z,20.57
2023-02-23T05:03:41.217Z,24.00
2023-02-23T05:08:43.598Z,24.17
2023-02-23T05:13:45.749Z,23.33
2023-02-23T05:18:48.204Z,26.90
2023-02-23T05:23:50.427Z,23.93
2023-02-23T05:28:52.895Z,24.70
2023-02-23T05:33:55.189Z,27.73
2023-02-23T05:38:57.669Z,25.53
2023-02-23T05:44:00.141Z,26.50
2023-02-23T05:49:03.179Z,25.77
2023-02-23T05:54:05.448Z,29.87
2023-02-23T05:59:07.757Z,30.07
2023-02-23T06:04:09.956Z,33.73
2023-02-23T06:09:12.224Z,32.73
2023-02-23T06:14:14.700Z,31.00
2023-02-23T06:19:17.004Z,20.90
2023-02-23T06:24:20.086Z,23.13
2023-02-23T06:29:22.647Z,20.20
2023-02-23T06:34:24.786Z,17.93
2023-02-23T06:39:26.940Z,23.07
2023-02-23T06:44:29.244Z,20.23
2023-02-23T06:49:31.711Z,17.73
2023-02-23T06:54:38.600Z,17.37
2023-02-23T06:59:41.167Z,17.60
2023-02-23T07:04:43.800Z,20.10
2023-02-23T07:09:45.938Z,18.87
2023-02-23T07:14:48.237Z,23.90
2023-02-23T07:19:50.572Z,24.93
2023-02-23T07:24:52.854Z,24.37
2023-02-23T07:29:55.008Z,22.33
2023-02-23T07:34:57.174Z,23.40
2023-02-23T07:40:01.173Z,24.87
2023-02-23T07:45:04.904Z,31.40
2023-02-23T07:50:10.029Z,35.43
2023-02-23T07:55:13.046Z,33.70
2023-02-23T08:00:15.713Z,30.43
2023-02-23T08:05:18.409Z,25.07
2023-02-23T08:10:21.153Z,27.43
2023-02-23T08:15:23.358Z,28.63
2023-02-23T08:20:25.653Z,28.43
2023-02-23T08:25:27.892Z,28.80
2023-02-23T08:30:30.367Z,29.00
2023-02-23T08:35:32.745Z,28.80
2023-02-23T08:40:35.023Z,28.77
2023-02-23T08:45:39.753Z,25.63
2023-02-23T08:50:42.052Z,22.93
2023-02-23T08:55:50.255Z,25.87
2023-02-23T09:00:53.146Z,21.87
2023-02-23T09:05:57.001Z,22.30
2023-02-23T09:10:59.378Z,20.20
2023-02-23T09:16:04.031Z,19.20
2023-02-23T09:21:10.757Z,18.53
2023-02-23T09:26:12.902Z,18.30
2023-02-23T09:31:21.239Z,16.60
2023-02-23T09:36:26.266Z,10.00
2023-02-23T09:42:09.759Z,11.57
2023-02-23T09:47:41.731Z,12.63
2023-02-23T09:52:49.567Z,9.20
2023-02-23T09:57:51.916Z,14.73
2023-02-23T10:03:12.220Z,10.23
2023-02-23T10:08:30.495Z,9.40
2023-02-23T10:13:56.628Z,10.57
2023-02-23T10:19:23.181Z,12.40
2023-02-23T10:24:38.235Z,8.60
2023-02-23T10:29:58.107Z,11.73
2023-02-23T10:35:00.564Z,10.97
2023-02-23T10:40:05.559Z,13.63
2023-02-23T10:45:19.669Z,12.03
2023-02-23T10:50:22.735Z,10.13
2023-02-23T10:55:31.620Z,12.43
2023-02-23T11:00:40.367Z,12.77
2023-02-23T11:05:50.696Z,13.93
2023-02-23T11:11:06.507Z,11.07
2023-02-23T11:16:26.724Z,9.40
2023-02-23T11:21:37.529Z,10.23
2023-02-23T11:26:43.472Z,11.03
2023-02-23T11:31:59.214Z,9.83
2023-02-23T11:37:23.302Z,9.13
2023-02-23T11:42:33.900Z,11.00
2023-02-23T11:47:42.091Z,11.27
2023-02-23T11:52:44.864Z,9.67
2023-02-23T11:57:49.592Z,13.10
2023-02-23T12:02:58.841Z,9.47
2023-02-23T12:08:20.077Z,12.30
2023-02-23T12:13:39.153Z,9.00
2023-02-23T12:19:08.824Z,9.57
2023-02-23T12:24:20.582Z,10.33
2023-02-23T12:30:09.441Z,11.20
2023-02-23T12:35:57.040Z,8.90
2023-02-23T12:41:14.289Z,13.07
2023-02-23T12:46:25.522Z,8.07
2023-02-23T12:51:38.962Z,10.80
2023-02-23T12:57:04.533Z,12.50
2023-02-23T13:02:27.284Z,9.93
2023-02-23T13:07:45.383Z,10.57
2023-02-23T13:13:05.550Z,8.67
2023-02-23T13:18:47.711Z,8.90
2023-02-23T13:24:19.146Z,11.07
2023-02-23T13:29:46.206Z,10.33
2023-02-23T13:35:04.021Z,10.13
2023-02-23T13:40:35.200Z,8.23
2023-02-23T13:45:54.081Z,5.93
2023-02-23T13:51:38.002Z,9.33
2023-02-23T13:56:49.878Z,9.13
2023-02-23T14:01:54.504Z,12.60
2023-02-23T14:07:26.542Z,7.80
2023-02-23T14:13:04.180Z,9.37
2023-02-23T14:18:30.801Z,10.50
2023-02-23T14:23:51.464Z,8.53
2023-02-23T14:29:24.529Z,7.50
2023-02-23T14:34:51.110Z,8.80
2023-02-23T14:39:56.999Z,9.60
2023-02-23T14:45:12.738Z,10.90
2023-02-23T14:50:28.199Z,10.10
2023-02-23T14:55:37.893Z,11.23
2023-02-23T15:00:44.019Z,8.50
2023-02-23T15:05:52.850Z,12.90
2023-02-23T15:11:08.305Z,9.00
2023-02-23T15:16:29.285Z,9.10
2023-02-23T15:21:32.080Z,9.03
2023-02-23T15:26:38.126Z,7.30
2023-02-23T15:31:50.942Z,9.57
2023-02-23T15:36:59.991Z,10.30
2023-02-23T15:42:03.666Z,7.63
2023-02-23T15:47:19.276Z,8.00
2023-02-23T15:52:25.468Z,10.73
2023-02-23T15:57:41.688Z,6.80
2023-02-23T16:02:45.901Z,11.90
2023-02-23T16:07:48.262Z,12.17
2023-02-23T16:12:53.651Z,11.83
2023-02-23T16:18:06.679Z,9.77
2023-02-23T16:23:37.645Z,12.77
2023-02-23T16:28:46.316Z,9.70
2023-02-23T16:33:57.156Z,8.23
2023-02-23T16:39:02.183Z,13.47
2023-02-23T16:44:07.601Z,11.27
2023-02-23T16:49:13.060Z,14.30
2023-02-23T16:54:15.547Z,11.70
2023-02-23T16:59:19.019Z,11.03
2023-02-23T17:04:21.801Z,14.33
2023-02-23T17:09:24.357Z,9.90
2023-02-23T22:20:38.150Z,16.37
2023-02-23T22:25:40.387Z,16.77
2023-02-23T22:30:43.188Z,18.57
2023-02-23T22:35:46.309Z,15.63
2023-02-23T22:40:48.662Z,14.50
2023-02-23T22:45:55.779Z,13.33
2023-02-23T22:50:59.081Z,16.53
2023-02-23T22:56:01.267Z,18.63
2023-02-23T23:01:06.307Z,14.73
2023-02-23T23:06:12.634Z,18.70
2023-02-23T23:11:20.119Z,16.97
2023-02-23T23:16:31.978Z,16.30
2023-02-23T23:21:35.940Z,13.73
2023-02-23T23:26:43.086Z,19.10
2023-02-23T23:31:45.954Z,13.67
2023-02-23T23:36:49.365Z,15.00
2023-02-23T23:41:51.966Z,14.50
2023-02-23T23:46:54.339Z,16.83
2023-02-23T23:51:57.221Z,16.03
2023-02-23T23:57:01.642Z,25.70
